sensor_id;sensor_type;location;lat;lon;timestamp;temperature;humidity
20977;DHT22;10647;51.016;3.720;2022-10-15T00:01:10;16.40;99.90
20977;DHT22;10647;51.016;3.720;2022-10-15T00:03:39;16.50;99.90
20977;DHT22;10647;51.016;3.720;2022-10-15T00:06:16;16.50;99.90
20977;DHT22;10647;51.016;3.720;2022-10-15T00:08:41;16.50;99.90
20977;DHT22;10647;51.016;3.720;2022-10-15T00:11:19;16.50;99.90
20977;DHT22;10647;51.016;3.720;2022-10-15T00:13:44;16.50;99.90
20977;DHT22;10647;51.016;3.720;2022-10-15T00:16:14;16.50;99.90
20977;DHT22;10647;51.016;3.720;2022-10-15T00:18:42;16.50;99.90
20977;DHT22;10647;51.016;3.720;2022-10-15T00:21:11;16.60;99.90
20977;DHT22;10647;51.016;3.720;2022-10-15T00:23:41;16.50;99.90
20977;DHT22;10647;51.016;3.720;2022-10-15T00:26:14;16.60;99.90
20977;DHT22;10647;51.016;3.720;2022-10-15T00:28:42;16.60;99.90
20977;DHT22;10647;51.016;3.720;2022-10-15T00:31:12;16.60;99.90
20977;DHT22;10647;51.016;3.720;2022-10-15T00:33:41;16.60;99.90
20977;DHT22;10647;51.016;3.720;2022-10-15T00:36:14;16.60;99.90
20977;DHT22;10647;51.016;3.720;2022-10-15T00:38:42;16.60;99.90
20977;DHT22;10647;51.016;3.720;2022-10-15T00:41:17;16.60;99.90
20977;DHT22;10647;51.016;3.720;2022-10-15T00:43:51;16.60;99.90
20977;DHT22;10647;51.016;3.720;2022-10-15T00:46:33;16.60;99.90
20977;DHT22;10647;51.016;3.720;2022-10-15T00:49:16;16.60;99.90
20977;DHT22;10647;51.016;3.720;2022-10-15T00:51:53;16.50;99.90
20977;DHT22;10647;51.016;3.720;2022-10-15T00:54:21;16.40;99.90
20977;DHT22;10647;51.016;3.720;2022-10-15T00:56:49;16.20;99.90
20977;DHT22;10647;51.016;3.720;2022-10-15T00:59:19;16.10;99.90
20977;DHT22;10647;51.016;3.720;2022-10-15T01:01:47;16.10;99.90
20977;DHT22;10647;51.016;3.720;2022-10-15T01:04:15;16.00;99.90
20977;DHT22;10647;51.016;3.720;2022-10-15T01:06:45;15.90;99.90
20977;DHT22;10647;51.016;3.720;2022-10-15T01:09:13;15.90;99.90
20977;DHT22;10647;51.016;3.720;2022-10-15T01:11:46;15.90;99.90
20977;DHT22;10647;51.016;3.720;2022-10-15T01:14:38;15.90;99.90
20977;DHT22;10647;51.016;3.720;2022-10-15T01:32:37;15.40;99.90
20977;DHT22;10647;51.016;3.720;2022-10-15T01:40:19;15.50;99.90
20977;DHT22;10647;51.016;3.720;2022-10-15T01:42:50;15.50;99.90
20977;DHT22;10647;51.016;3.720;2022-10-15T01:45:26;15.60;99.90
20977;DHT22;10647;51.016;3.720;2022-10-15T01:50:44;15.60;99.90
20977;DHT22;10647;51.016;3.720;2022-10-15T01:53:14;15.60;99.90
20977;DHT22;10647;51.016;3.720;2022-10-15T01:55:44;15.50;99.90
20977;DHT22;10647;51.016;3.720;2022-10-15T01:58:13;15.40;99.90
20977;DHT22;10647;51.016;3.720;2022-10-15T02:03:31;15.40;99.90
20977;DHT22;10647;51.016;3.720;2022-10-15T02:06:06;15.40;99.90
20977;DHT22;10647;51.016;3.720;2022-10-15T02:08:56;15.50;99.90
20977;DHT22;10647;51.016;3.720;2022-10-15T02:12:14;15.60;99.90
20977;DHT22;10647;51.016;3.720;2022-10-15T02:17:43;15.80;99.90
20977;DHT22;10647;51.016;3.720;2022-10-15T02:20:19;15.80;99.90
20977;DHT22;10647;51.016;3.720;2022-10-15T02:22:47;15.90;99.90
20977;DHT22;10647;51.016;3.720;2022-10-15T02:25:20;15.90;99.90
20977;DHT22;10647;51.016;3.720;2022-10-15T02:27:50;15.90;99.90
20977;DHT22;10647;51.016;3.720;2022-10-15T02:30:18;16.00;99.90
20977;DHT22;10647;51.016;3.720;2022-10-15T02:32:49;16.00;99.90
20977;DHT22;10647;51.016;3.720;2022-10-15T02:35:18;16.10;99.90
20977;DHT22;10647;51.016;3.720;2022-10-15T02:37:49;16.10;99.90
20977;DHT22;10647;51.016;3.720;2022-10-15T02:40:21;16.20;99.90
20977;DHT22;10647;51.016;3.720;2022-10-15T02:42:52;16.20;99.90
20977;DHT22;10647;51.016;3.720;2022-10-15T02:45:20;16.20;99.90
20977;DHT22;10647;51.016;3.720;2022-10-15T02:47:47;16.20;99.90
20977;DHT22;10647;51.016;3.720;2022-10-15T02:50:15;16.20;99.90
20977;DHT22;10647;51.016;3.720;2022-10-15T02:52:42;16.20;99.90
20977;DHT22;10647;51.016;3.720;2022-10-15T02:55:10;16.30;99.90
20977;DHT22;10647;51.016;3.720;2022-10-15T02:57:38;16.30;99.90
20977;DHT22;10647;51.016;3.720;2022-10-15T03:00:06;16.30;99.90
20977;DHT22;10647;51.016;3.720;2022-10-15T03:02:33;16.30;99.90
20977;DHT22;10647;51.016;3.720;2022-10-15T03:05:01;16.20;99.90
20977;DHT22;10647;51.016;3.720;2022-10-15T03:07:28;16.20;99.90
20977;DHT22;10647;51.016;3.720;2022-10-15T03:09:56;16.30;99.90
20977;DHT22;10647;51.016;3.720;2022-10-15T03:12:24;16.30;99.90
20977;DHT22;10647;51.016;3.720;2022-10-15T03:14:52;16.30;99.90
20977;DHT22;10647;51.016;3.720;2022-10-15T03:17:20;16.10;99.90
20977;DHT22;10647;51.016;3.720;2022-10-15T03:19:47;16.10;99.90
20977;DHT22;10647;51.016;3.720;2022-10-15T03:22:15;16.00;99.90
20977;DHT22;10647;51.016;3.720;2022-10-15T03:24:42;15.90;99.90
20977;DHT22;10647;51.016;3.720;2022-10-15T03:27:10;16.00;99.90
20977;DHT22;10647;51.016;3.720;2022-10-15T03:29:37;16.00;99.90
20977;DHT22;10647;51.016;3.720;2022-10-15T03:32:05;16.00;99.90
20977;DHT22;10647;51.016;3.720;2022-10-15T03:34:32;16.00;99.90
20977;DHT22;10647;51.016;3.720;2022-10-15T03:37:00;16.10;99.90
20977;DHT22;10647;51.016;3.720;2022-10-15T03:39:27;16.10;99.90
20977;DHT22;10647;51.016;3.720;2022-10-15T03:41:55;16.00;99.90
20977;DHT22;10647;51.016;3.720;2022-10-15T03:44:22;16.00;99.90
20977;DHT22;10647;51.016;3.720;2022-10-15T03:46:50;16.00;99.90
20977;DHT22;10647;51.016;3.720;2022-10-15T03:49:17;15.90;99.90
20977;DHT22;10647;51.016;3.720;2022-10-15T03:51:45;15.90;99.90
20977;DHT22;10647;51.016;3.720;2022-10-15T03:54:12;15.90;99.90
20977;DHT22;10647;51.016;3.720;2022-10-15T03:56:40;15.90;99.90
20977;DHT22;10647;51.016;3.720;2022-10-15T03:59:07;15.90;99.90
20977;DHT22;10647;51.016;3.720;2022-10-15T04:01:35;16.00;99.90
20977;DHT22;10647;51.016;3.720;2022-10-15T04:04:02;16.00;99.90
20977;DHT22;10647;51.016;3.720;2022-10-15T04:06:30;16.00;99.90
20977;DHT22;10647;51.016;3.720;2022-10-15T04:08:59;16.00;99.90
20977;DHT22;10647;51.016;3.720;2022-10-15T04:11:27;16.00;99.90
20977;DHT22;10647;51.016;3.720;2022-10-15T04:13:54;16.10;99.90
20977;DHT22;10647;51.016;3.720;2022-10-15T04:16:22;16.10;99.90
20977;DHT22;10647;51.016;3.720;2022-10-15T04:18:49;16.00;99.90
20977;DHT22;10647;51.016;3.720;2022-10-15T04:21:18;16.00;99.90
20977;DHT22;10647;51.016;3.720;2022-10-15T04:23:46;16.00;99.90
20977;DHT22;10647;51.016;3.720;2022-10-15T04:26:14;16.10;99.90
20977;DHT22;10647;51.016;3.720;2022-10-15T04:28:41;16.10;99.90
20977;DHT22;10647;51.016;3.720;2022-10-15T04:31:09;16.10;99.90
20977;DHT22;10647;51.016;3.720;2022-10-15T04:33:36;16.10;99.90
20977;DHT22;10647;51.016;3.720;2022-10-15T04:36:06;16.20;99.90
20977;DHT22;10647;51.016;3.720;2022-10-15T04:38:34;16.10;99.90
20977;DHT22;10647;51.016;3.720;2022-10-15T04:41:04;16.10;99.90
20977;DHT22;10647;51.016;3.720;2022-10-15T04:43:32;16.10;99.90
20977;DHT22;10647;51.016;3.720;2022-10-15T04:46:01;16.10;99.90
20977;DHT22;10647;51.016;3.720;2022-10-15T04:48:31;16.10;99.90
20977;DHT22;10647;51.016;3.720;2022-10-15T04:53:57;16.10;99.90
20977;DHT22;10647;51.016;3.720;2022-10-15T04:56:32;16.20;99.90
20977;DHT22;10647;51.016;3.720;2022-10-15T04:59:00;16.10;99.90
20977;DHT22;10647;51.016;3.720;2022-10-15T05:01:34;16.20;99.90
20977;DHT22;10647;51.016;3.720;2022-10-15T05:04:01;16.20;99.90
20977;DHT22;10647;51.016;3.720;2022-10-15T05:06:32;16.20;99.90
20977;DHT22;10647;51.016;3.720;2022-10-15T05:09:00;16.20;99.90
20977;DHT22;10647;51.016;3.720;2022-10-15T05:11:33;16.20;99.90
20977;DHT22;10647;51.016;3.720;2022-10-15T05:14:03;16.10;99.90
20977;DHT22;10647;51.016;3.720;2022-10-15T05:16:31;16.10;99.90
20977;DHT22;10647;51.016;3.720;2022-10-15T05:19:06;16.00;99.90
20977;DHT22;10647;51.016;3.720;2022-10-15T05:24:19;15.80;99.90
20977;DHT22;10647;51.016;3.720;2022-10-15T05:26:46;15.70;99.90
20977;DHT22;10647;51.016;3.720;2022-10-15T05:29:14;15.70;99.90
20977;DHT22;10647;51.016;3.720;2022-10-15T05:31:41;15.60;99.90
20977;DHT22;10647;51.016;3.720;2022-10-15T05:34:09;15.60;99.90
20977;DHT22;10647;51.016;3.720;2022-10-15T05:36:36;15.70;99.90
20977;DHT22;10647;51.016;3.720;2022-10-15T05:39:04;15.70;99.90
20977;DHT22;10647;51.016;3.720;2022-10-15T05:41:36;15.80;99.90
20977;DHT22;10647;51.016;3.720;2022-10-15T05:44:03;15.80;99.90
20977;DHT22;10647;51.016;3.720;2022-10-15T05:46:31;15.80;99.90
20977;DHT22;10647;51.016;3.720;2022-10-15T05:48:59;15.80;99.90
20977;DHT22;10647;51.016;3.720;2022-10-15T05:51:27;15.70;99.90
20977;DHT22;10647;51.016;3.720;2022-10-15T05:53:56;15.70;99.90
20977;DHT22;10647;51.016;3.720;2022-10-15T05:56:25;15.70;99.90
20977;DHT22;10647;51.016;3.720;2022-10-15T05:58:53;15.70;99.90
20977;DHT22;10647;51.016;3.720;2022-10-15T06:01:21;15.70;99.90
20977;DHT22;10647;51.016;3.720;2022-10-15T06:03:48;15.80;99.90
20977;DHT22;10647;51.016;3.720;2022-10-15T06:06:18;15.80;99.90
20977;DHT22;10647;51.016;3.720;2022-10-15T06:08:46;15.90;99.90
20977;DHT22;10647;51.016;3.720;2022-10-15T06:11:14;15.90;99.90
20977;DHT22;10647;51.016;3.720;2022-10-15T06:13:43;16.00;99.90
20977;DHT22;10647;51.016;3.720;2022-10-15T06:16:11;16.00;99.90
20977;DHT22;10647;51.016;3.720;2022-10-15T06:18:39;16.00;99.90
20977;DHT22;10647;51.016;3.720;2022-10-15T06:21:08;16.10;99.90
20977;DHT22;10647;51.016;3.720;2022-10-15T06:23:36;16.10;99.90
20977;DHT22;10647;51.016;3.720;2022-10-15T06:26:05;16.10;99.90
20977;DHT22;10647;51.016;3.720;2022-10-15T06:28:34;16.10;99.90
20977;DHT22;10647;51.016;3.720;2022-10-15T06:31:02;16.20;99.90
20977;DHT22;10647;51.016;3.720;2022-10-15T06:33:30;16.20;99.90
20977;DHT22;10647;51.016;3.720;2022-10-15T06:36:03;16.30;99.90
20977;DHT22;10647;51.016;3.720;2022-10-15T06:38:32;16.30;99.90
20977;DHT22;10647;51.016;3.720;2022-10-15T06:41:05;16.30;99.90
20977;DHT22;10647;51.016;3.720;2022-10-15T06:43:33;16.40;99.90
20977;DHT22;10647;51.016;3.720;2022-10-15T06:46:04;16.50;99.90
20977;DHT22;10647;51.016;3.720;2022-10-15T06:48:37;16.50;99.90
20977;DHT22;10647;51.016;3.720;2022-10-15T06:51:05;16.60;99.90
20977;DHT22;10647;51.016;3.720;2022-10-15T06:53:33;16.70;99.90
20977;DHT22;10647;51.016;3.720;2022-10-15T06:56:02;16.70;99.90
20977;DHT22;10647;51.016;3.720;2022-10-15T06:58:30;16.70;99.90
20977;DHT22;10647;51.016;3.720;2022-10-15T07:01:04;16.70;99.90
20977;DHT22;10647;51.016;3.720;2022-10-15T07:03:38;16.80;99.90
20977;DHT22;10647;51.016;3.720;2022-10-15T07:06:07;16.90;99.90
20977;DHT22;10647;51.016;3.720;2022-10-15T07:08:36;17.00;99.90
20977;DHT22;10647;51.016;3.720;2022-10-15T07:11:05;17.00;99.90
20977;DHT22;10647;51.016;3.720;2022-10-15T07:13:35;17.10;99.90
20977;DHT22;10647;51.016;3.720;2022-10-15T07:16:10;17.20;99.90
20977;DHT22;10647;51.016;3.720;2022-10-15T07:18:38;17.20;99.90
20977;DHT22;10647;51.016;3.720;2022-10-15T07:21:07;17.30;99.90
20977;DHT22;10647;51.016;3.720;2022-10-15T07:23:35;17.20;99.90
20977;DHT22;10647;51.016;3.720;2022-10-15T07:26:02;17.20;99.90
20977;DHT22;10647;51.016;3.720;2022-10-15T07:28:30;17.30;99.90
20977;DHT22;10647;51.016;3.720;2022-10-15T07:31:03;17.20;99.90
20977;DHT22;10647;51.016;3.720;2022-10-15T07:33:32;17.30;99.90
20977;DHT22;10647;51.016;3.720;2022-10-15T07:36:08;17.30;99.90
20977;DHT22;10647;51.016;3.720;2022-10-15T07:38:38;17.30;99.90
20977;DHT22;10647;51.016;3.720;2022-10-15T07:41:09;17.30;99.90
20977;DHT22;10647;51.016;3.720;2022-10-15T07:43:40;17.40;99.90
20977;DHT22;10647;51.016;3.720;2022-10-15T07:46:10;17.30;99.90
20977;DHT22;10647;51.016;3.720;2022-10-15T07:48:37;17.30;99.90
20977;DHT22;10647;51.016;3.720;2022-10-15T07:51:06;17.40;99.90
20977;DHT22;10647;51.016;3.720;2022-10-15T07:53:34;17.50;99.90
20977;DHT22;10647;51.016;3.720;2022-10-15T07:56:04;17.70;99.90
20977;DHT22;10647;51.016;3.720;2022-10-15T07:58:37;17.70;99.90
20977;DHT22;10647;51.016;3.720;2022-10-15T08:01:07;17.80;99.90
20977;DHT22;10647;51.016;3.720;2022-10-15T08:03:36;17.80;99.90
20977;DHT22;10647;51.016;3.720;2022-10-15T08:06:06;17.90;99.90
20977;DHT22;10647;51.016;3.720;2022-10-15T08:08:34;17.90;99.90
20977;DHT22;10647;51.016;3.720;2022-10-15T08:11:08;17.90;99.90
20977;DHT22;10647;51.016;3.720;2022-10-15T08:13:37;18.00;99.90
20977;DHT22;10647;51.016;3.720;2022-10-15T08:16:12;18.00;99.90
20977;DHT22;10647;51.016;3.720;2022-10-15T08:18:59;18.00;99.90
20977;DHT22;10647;51.016;3.720;2022-10-15T08:21:27;18.00;99.90
20977;DHT22;10647;51.016;3.720;2022-10-15T08:23:57;18.00;99.90
20977;DHT22;10647;51.016;3.720;2022-10-15T08:26:26;18.00;99.90
20977;DHT22;10647;51.016;3.720;2022-10-15T08:28:53;18.00;99.90
20977;DHT22;10647;51.016;3.720;2022-10-15T08:31:23;18.00;99.90
20977;DHT22;10647;51.016;3.720;2022-10-15T08:33:52;18.10;99.90
20977;DHT22;10647;51.016;3.720;2022-10-15T08:36:35;18.10;99.90
20977;DHT22;10647;51.016;3.720;2022-10-15T08:39:03;18.20;99.90
20977;DHT22;10647;51.016;3.720;2022-10-15T08:41:48;18.30;99.90
20977;DHT22;10647;51.016;3.720;2022-10-15T08:44:30;18.60;99.90
20977;DHT22;10647;51.016;3.720;2022-10-15T08:47:13;18.70;99.90
20977;DHT22;10647;51.016;3.720;2022-10-15T08:49:48;18.80;99.90
20977;DHT22;10647;51.016;3.720;2022-10-15T08:55:05;19.00;99.90
20977;DHT22;10647;51.016;3.720;2022-10-15T09:00:52;18.80;99.90
20977;DHT22;10647;51.016;3.720;2022-10-15T09:06:38;19.00;99.90
20977;DHT22;10647;51.016;3.720;2022-10-15T09:09:24;19.00;99.90
20977;DHT22;10647;51.016;3.720;2022-10-15T09:15:04;19.30;99.90
20977;DHT22;10647;51.016;3.720;2022-10-15T09:17:36;19.50;99.90
20977;DHT22;10647;51.016;3.720;2022-10-15T09:20:16;19.50;99.90
20977;DHT22;10647;51.016;3.720;2022-10-15T09:22:50;19.50;99.90
20977;DHT22;10647;51.016;3.720;2022-10-15T09:25:20;19.50;99.90
20977;DHT22;10647;51.016;3.720;2022-10-15T09:27:49;19.80;99.90
20977;DHT22;10647;51.016;3.720;2022-10-15T09:36:43;20.10;99.90
20977;DHT22;10647;51.016;3.720;2022-10-15T09:44:51;20.10;99.90
20977;DHT22;10647;51.016;3.720;2022-10-15T09:47:28;20.20;99.90
20977;DHT22;10647;51.016;3.720;2022-10-15T09:50:04;20.40;99.90
20977;DHT22;10647;51.016;3.720;2022-10-15T09:55:42;21.00;99.90
20977;DHT22;10647;51.016;3.720;2022-10-15T09:58:22;21.20;99.90
20977;DHT22;10647;51.016;3.720;2022-10-15T10:01:04;21.60;99.90
20977;DHT22;10647;51.016;3.720;2022-10-15T10:03:33;21.70;99.90
20977;DHT22;10647;51.016;3.720;2022-10-15T10:06:09;21.60;99.90
20977;DHT22;10647;51.016;3.720;2022-10-15T10:08:57;21.50;99.90
20977;DHT22;10647;51.016;3.720;2022-10-15T10:11:26;21.80;99.90
20977;DHT22;10647;51.016;3.720;2022-10-15T10:13:57;22.20;99.90
20977;DHT22;10647;51.016;3.720;2022-10-15T10:16:27;22.40;99.90
20977;DHT22;10647;51.016;3.720;2022-10-15T10:19:11;22.60;99.90
20977;DHT22;10647;51.016;3.720;2022-10-15T10:21:41;22.90;99.90
20977;DHT22;10647;51.016;3.720;2022-10-15T10:24:27;23.30;99.90
20977;DHT22;10647;51.016;3.720;2022-10-15T10:26:57;23.30;99.90
20977;DHT22;10647;51.016;3.720;2022-10-15T10:29:25;23.30;99.90
20977;DHT22;10647;51.016;3.720;2022-10-15T10:31:53;23.60;99.90
20977;DHT22;10647;51.016;3.720;2022-10-15T10:34:29;23.50;99.90
20977;DHT22;10647;51.016;3.720;2022-10-15T10:37:01;23.30;99.90
20977;DHT22;10647;51.016;3.720;2022-10-15T10:39:32;23.30;99.90
20977;DHT22;10647;51.016;3.720;2022-10-15T10:44:45;22.90;99.90
20977;DHT22;10647;51.016;3.720;2022-10-15T10:47:21;22.90;99.90
20977;DHT22;10647;51.016;3.720;2022-10-15T10:49:51;22.80;99.90
20977;DHT22;10647;51.016;3.720;2022-10-15T10:52:36;22.90;99.90
20977;DHT22;10647;51.016;3.720;2022-10-15T10:55:09;22.80;99.90
20977;DHT22;10647;51.016;3.720;2022-10-15T10:57:52;22.80;99.90
20977;DHT22;10647;51.016;3.720;2022-10-15T11:00:26;23.00;99.90
20977;DHT22;10647;51.016;3.720;2022-10-15T11:02:53;23.00;99.90
20977;DHT22;10647;51.016;3.720;2022-10-15T11:05:29;23.10;99.90
20977;DHT22;10647;51.016;3.720;2022-10-15T11:08:26;23.00;99.90
20977;DHT22;10647;51.016;3.720;2022-10-15T11:16:23;22.20;99.90
20977;DHT22;10647;51.016;3.720;2022-10-15T11:22:22;21.70;99.90
20977;DHT22;10647;51.016;3.720;2022-10-15T11:27:45;21.60;99.90
20977;DHT22;10647;51.016;3.720;2022-10-15T11:35:56;21.30;99.90
20977;DHT22;10647;51.016;3.720;2022-10-15T11:38:46;21.70;99.90
20977;DHT22;10647;51.016;3.720;2022-10-15T11:41:17;22.20;99.90
20977;DHT22;10647;51.016;3.720;2022-10-15T11:44:12;22.40;99.90
20977;DHT22;10647;51.016;3.720;2022-10-15T11:46:43;22.50;99.90
20977;DHT22;10647;51.016;3.720;2022-10-15T11:49:18;22.50;99.90
20977;DHT22;10647;51.016;3.720;2022-10-15T11:54:21;23.10;99.90
20977;DHT22;10647;51.016;3.720;2022-10-15T11:56:50;23.10;99.90
20977;DHT22;10647;51.016;3.720;2022-10-15T12:01:51;23.20;99.90
20977;DHT22;10647;51.016;3.720;2022-10-15T12:04:33;23.30;99.90
20977;DHT22;10647;51.016;3.720;2022-10-15T12:07:00;23.60;99.90
20977;DHT22;10647;51.016;3.720;2022-10-15T12:09:34;23.80;99.90
20977;DHT22;10647;51.016;3.720;2022-10-15T12:12:17;23.80;99.90
20977;DHT22;10647;51.016;3.720;2022-10-15T12:14:49;23.80;99.90
20977;DHT22;10647;51.016;3.720;2022-10-15T12:20:22;23.80;99.90
20977;DHT22;10647;51.016;3.720;2022-10-15T12:22:58;24.00;99.90
20977;DHT22;10647;51.016;3.720;2022-10-15T12:28:15;24.00;99.90
20977;DHT22;10647;51.016;3.720;2022-10-15T12:30:54;23.70;99.90
20977;DHT22;10647;51.016;3.720;2022-10-15T12:33:33;23.70;99.90
20977;DHT22;10647;51.016;3.720;2022-10-15T12:38:55;23.30;99.90
20977;DHT22;10647;51.016;3.720;2022-10-15T12:41:11;23.20;99.90
20977;DHT22;10647;51.016;3.720;2022-10-15T12:43:47;23.50;99.90
20977;DHT22;10647;51.016;3.720;2022-10-15T12:46:13;24.40;99.90
20977;DHT22;10647;51.016;3.720;2022-10-15T12:48:44;25.80;99.90
20977;DHT22;10647;51.016;3.720;2022-10-15T12:53:51;28.30;99.90
20977;DHT22;10647;51.016;3.720;2022-10-15T12:56:23;28.60;99.90
20977;DHT22;10647;51.016;3.720;2022-10-15T12:58:53;28.70;99.90
20977;DHT22;10647;51.016;3.720;2022-10-15T13:03:53;27.40;99.90
20977;DHT22;10647;51.016;3.720;2022-10-15T13:06:30;26.80;99.90
20977;DHT22;10647;51.016;3.720;2022-10-15T13:11:39;26.00;99.90
20977;DHT22;10647;51.016;3.720;2022-10-15T13:16:48;25.80;99.90
20977;DHT22;10647;51.016;3.720;2022-10-15T13:19:20;26.10;99.90
20977;DHT22;10647;51.016;3.720;2022-10-15T13:21:51;26.00;99.90
20977;DHT22;10647;51.016;3.720;2022-10-15T13:24:22;26.70;99.90
20977;DHT22;10647;51.016;3.720;2022-10-15T13:26:51;27.30;99.90
20977;DHT22;10647;51.016;3.720;2022-10-15T13:29:24;26.80;99.90
20977;DHT22;10647;51.016;3.720;2022-10-15T13:31:54;28.30;99.90
20977;DHT22;10647;51.016;3.720;2022-10-15T13:34:30;27.90;99.90
20977;DHT22;10647;51.016;3.720;2022-10-15T13:37:00;28.30;99.90
20977;DHT22;10647;51.016;3.720;2022-10-15T13:39:39;28.40;99.90
20977;DHT22;10647;51.016;3.720;2022-10-15T13:42:12;28.90;99.90
20977;DHT22;10647;51.016;3.720;2022-10-15T13:44:37;29.70;99.30
20977;DHT22;10647;51.016;3.720;2022-10-15T13:47:22;31.10;97.70
20977;DHT22;10647;51.016;3.720;2022-10-15T13:49:47;32.00;96.00
20977;DHT22;10647;51.016;3.720;2022-10-15T13:52:14;32.40;93.40
20977;DHT22;10647;51.016;3.720;2022-10-15T13:54:44;31.50;92.30
20977;DHT22;10647;51.016;3.720;2022-10-15T13:57:14;30.50;92.80
20977;DHT22;10647;51.016;3.720;2022-10-15T13:59:45;30.90;92.60
20977;DHT22;10647;51.016;3.720;2022-10-15T14:02:13;31.00;92.50
20977;DHT22;10647;51.016;3.720;2022-10-15T14:04:41;31.00;92.50
20977;DHT22;10647;51.016;3.720;2022-10-15T14:07:22;30.30;92.00
20977;DHT22;10647;51.016;3.720;2022-10-15T14:09:51;29.90;91.80
20977;DHT22;10647;51.016;3.720;2022-10-15T14:12:19;29.40;91.80
20977;DHT22;10647;51.016;3.720;2022-10-15T14:14:47;30.10;91.40
20977;DHT22;10647;51.016;3.720;2022-10-15T14:20:14;31.70;88.90
20977;DHT22;10647;51.016;3.720;2022-10-15T14:22:42;32.00;87.10
20977;DHT22;10647;51.016;3.720;2022-10-15T14:25:13;31.40;86.70
20977;DHT22;10647;51.016;3.720;2022-10-15T14:27:43;30.80;86.90
20977;DHT22;10647;51.016;3.720;2022-10-15T14:30:24;30.60;86.50
20977;DHT22;10647;51.016;3.720;2022-10-15T14:32:50;31.10;85.70
20977;DHT22;10647;51.016;3.720;2022-10-15T14:35:32;30.60;85.80
20977;DHT22;10647;51.016;3.720;2022-10-15T14:38:14;30.60;85.70
20977;DHT22;10647;51.016;3.720;2022-10-15T14:40:34;31.30;85.10
20977;DHT22;10647;51.016;3.720;2022-10-15T14:43:04;31.20;84.20
20977;DHT22;10647;51.016;3.720;2022-10-15T14:45:53;30.80;84.00
20977;DHT22;10647;51.016;3.720;2022-10-15T14:48:26;29.30;85.30
20977;DHT22;10647;51.016;3.720;2022-10-15T14:50:59;28.30;88.10
20977;DHT22;10647;51.016;3.720;2022-10-15T14:53:30;28.30;89.40
20977;DHT22;10647;51.016;3.720;2022-10-15T14:55:59;28.90;89.80
20977;DHT22;10647;51.016;3.720;2022-10-15T14:58:28;28.90;89.10
20977;DHT22;10647;51.016;3.720;2022-10-15T15:00:58;28.40;88.60
20977;DHT22;10647;51.016;3.720;2022-10-15T15:03:29;27.70;89.30
20977;DHT22;10647;51.016;3.720;2022-10-15T15:05:57;27.20;90.30
20977;DHT22;10647;51.016;3.720;2022-10-15T15:08:25;26.60;90.70
20977;DHT22;10647;51.016;3.720;2022-10-15T15:10:55;26.10;91.10
20977;DHT22;10647;51.016;3.720;2022-10-15T15:13:26;25.80;92.10
20977;DHT22;10647;51.016;3.720;2022-10-15T15:15:54;25.40;92.20
20977;DHT22;10647;51.016;3.720;2022-10-15T15:18:21;25.00;92.80
20977;DHT22;10647;51.016;3.720;2022-10-15T15:20:50;24.50;93.10
20977;DHT22;10647;51.016;3.720;2022-10-15T15:23:22;24.20;93.60
20977;DHT22;10647;51.016;3.720;2022-10-15T15:25:51;24.00;94.00
20977;DHT22;10647;51.016;3.720;2022-10-15T15:28:21;23.70;94.40
20977;DHT22;10647;51.016;3.720;2022-10-15T15:31:04;23.60;94.70
20977;DHT22;10647;51.016;3.720;2022-10-15T15:33:32;23.30;95.00
20977;DHT22;10647;51.016;3.720;2022-10-15T15:36:11;23.10;95.40
20977;DHT22;10647;51.016;3.720;2022-10-15T15:38:39;22.80;95.90
20977;DHT22;10647;51.016;3.720;2022-10-15T15:41:20;22.60;96.20
20977;DHT22;10647;51.016;3.720;2022-10-15T15:43:44;22.50;96.60
20977;DHT22;10647;51.016;3.720;2022-10-15T15:46:11;22.50;96.90
20977;DHT22;10647;51.016;3.720;2022-10-15T15:48:39;22.40;97.20
20977;DHT22;10647;51.016;3.720;2022-10-15T15:51:27;22.30;97.00
20977;DHT22;10647;51.016;3.720;2022-10-15T15:53:56;22.10;97.10
20977;DHT22;10647;51.016;3.720;2022-10-15T15:56:24;22.00;97.30
20977;DHT22;10647;51.016;3.720;2022-10-15T15:58:52;22.00;97.40
20977;DHT22;10647;51.016;3.720;2022-10-15T16:01:19;21.80;97.50
20977;DHT22;10647;51.016;3.720;2022-10-15T16:03:47;21.80;97.60
20977;DHT22;10647;51.016;3.720;2022-10-15T16:06:14;21.70;97.60
20977;DHT22;10647;51.016;3.720;2022-10-15T16:08:42;21.50;97.70
20977;DHT22;10647;51.016;3.720;2022-10-15T16:11:09;21.50;98.00
20977;DHT22;10647;51.016;3.720;2022-10-15T16:13:37;21.40;98.20
20977;DHT22;10647;51.016;3.720;2022-10-15T16:16:06;21.30;98.40
20977;DHT22;10647;51.016;3.720;2022-10-15T16:18:34;21.20;98.70
20977;DHT22;10647;51.016;3.720;2022-10-15T16:21:03;21.00;99.00
20977;DHT22;10647;51.016;3.720;2022-10-15T16:23:36;20.80;99.30
20977;DHT22;10647;51.016;3.720;2022-10-15T16:26:05;20.60;99.50
20977;DHT22;10647;51.016;3.720;2022-10-15T16:28:32;20.50;99.80
20977;DHT22;10647;51.016;3.720;2022-10-15T16:31:23;20.30;99.90
20977;DHT22;10647;51.016;3.720;2022-10-15T16:33:53;20.20;99.90
20977;DHT22;10647;51.016;3.720;2022-10-15T16:36:21;20.00;99.90
20977;DHT22;10647;51.016;3.720;2022-10-15T16:38:49;19.90;99.90
20977;DHT22;10647;51.016;3.720;2022-10-15T16:41:17;19.70;99.90
20977;DHT22;10647;51.016;3.720;2022-10-15T16:43:46;19.60;99.90
20977;DHT22;10647;51.016;3.720;2022-10-15T16:46:15;19.50;99.90
20977;DHT22;10647;51.016;3.720;2022-10-15T16:48:43;19.40;99.90
20977;DHT22;10647;51.016;3.720;2022-10-15T16:51:15;19.30;99.90
20977;DHT22;10647;51.016;3.720;2022-10-15T16:53:44;19.20;99.90
20977;DHT22;10647;51.016;3.720;2022-10-15T16:56:20;19.30;99.90
20977;DHT22;10647;51.016;3.720;2022-10-15T16:58:48;19.20;99.90
20977;DHT22;10647;51.016;3.720;2022-10-15T17:01:18;19.10;99.90
20977;DHT22;10647;51.016;3.720;2022-10-15T17:03:46;19.10;99.90
20977;DHT22;10647;51.016;3.720;2022-10-15T17:06:16;19.00;99.90
20977;DHT22;10647;51.016;3.720;2022-10-15T17:08:56;19.00;99.90
20977;DHT22;10647;51.016;3.720;2022-10-15T17:11:23;18.90;99.90
20977;DHT22;10647;51.016;3.720;2022-10-15T17:13:56;18.90;99.90
20977;DHT22;10647;51.016;3.720;2022-10-15T17:16:27;18.80;99.90
20977;DHT22;10647;51.016;3.720;2022-10-15T17:18:55;18.80;99.90
20977;DHT22;10647;51.016;3.720;2022-10-15T17:21:29;18.70;99.90
20977;DHT22;10647;51.016;3.720;2022-10-15T17:24:00;18.60;99.90
20977;DHT22;10647;51.016;3.720;2022-10-15T17:26:31;18.60;99.90
20977;DHT22;10647;51.016;3.720;2022-10-15T17:29:02;18.50;99.90
20977;DHT22;10647;51.016;3.720;2022-10-15T17:31:31;18.50;99.90
20977;DHT22;10647;51.016;3.720;2022-10-15T17:34:01;18.50;99.90
20977;DHT22;10647;51.016;3.720;2022-10-15T17:36:32;18.40;99.90
20977;DHT22;10647;51.016;3.720;2022-10-15T17:39:00;18.30;99.90
20977;DHT22;10647;51.016;3.720;2022-10-15T17:41:29;18.30;99.90
20977;DHT22;10647;51.016;3.720;2022-10-15T17:43:57;18.30;99.90